Time;durP1;ratioP1;P1;durP2;ratioP2;P2;SDS_P1;SDS_P2;PMS_P1;PMS_P2;Temp;Humidity;BMP_temperature;BMP_pressure;BME280_temperature;BME280_humidity;BME280_pressure;Samples;Min_cycle;Max_cycle;Signal;HPM_P1;HPM_P2
2022/08/22 00:01:23;;;;;;;6.63;4.03;;;;;;;11.69;100.00;98301.41;2606706;28;20056;-90
2022/08/22 00:02:45;;;;;;;7.10;4.35;;;;;;;11.75;100.00;98305.56;2606686;28;20056;-90
2022/08/22 00:04:20;;;;;;;;;;;;;;;11.75;100.00;98297.69;2606650;28;20487;-91
2022/08/22 00:06:18;;;;;;;7.30;3.70;;;;;;;11.81;100.00;98307.97;2606475;28;19925;-89
2022/08/22 00:08:08;;;;;;;8.73;4.40;;;;;;;11.80;100.00;98303.63;2605684;28;20041;-90
2022/08/22 00:09:54;;;;;;;10.23;3.85;;;;;;;11.77;100.00;98309.00;2605914;28;20387;-91
2022/08/22 00:11:34;;;;;;;6.93;3.97;;;;;;;11.82;100.00;98297.44;2606381;28;20108;-91
2022/08/22 00:13:14;;;;;;;7.10;4.07;;;;;;;11.67;100.00;98308.47;2605626;28;20057;-90
2022/08/22 00:14:45;;;;;;;8.07;4.07;;;;;;;11.68;100.00;98305.75;2605822;28;20541;-90
2022/08/22 00:16:07;;;;;;;6.90;4.15;;;;;;;11.70;100.00;98308.34;2606461;28;20163;-90
2022/08/22 00:17:51;;;;;;;7.47;4.50;;;;;;;11.74;100.00;98304.69;2605496;28;20052;-90
2022/08/22 00:19:16;;;;;;;;;;;;;;;11.76;100.00;98302.03;2607013;28;20053;-89
2022/08/22 00:20:43;;;;;;;6.30;3.90;;;;;;;11.78;100.00;98308.91;2605469;28;19925;-88
2022/08/22 00:22:27;;;;;;;6.80;4.10;;;;;;;11.70;100.00;98303.94;2606337;28;20059;-89
2022/08/22 00:23:51;;;;;;;6.60;4.00;;;;;;;11.69;100.00;98309.25;2598601;28;20076;-90
2022/08/22 00:25:40;;;;;;;7.75;4.47;;;;;;;11.69;100.00;98307.47;2605387;28;20447;-91
2022/08/22 00:27:08;;;;;;;7.70;4.38;;;;;;;11.70;100.00;98311.81;2604510;28;20106;-90
2022/08/22 00:28:27;;;;;;;5.53;4.47;;;;;;;11.78;100.00;98308.06;2605493;28;20052;-88
2022/08/22 00:29:50;;;;;;;8.48;4.60;;;;;;;11.73;100.00;98308.22;2606816;28;20115;-89
2022/08/22 00:31:14;;;;;;;6.63;4.63;;;;;;;11.69;100.00;98312.72;2605756;28;20388;-89
2022/08/22 00:32:45;;;;;;;7.55;4.63;;;;;;;11.76;100.00;98307.28;2606552;28;20069;-89
2022/08/22 00:34:13;;;;;;;7.47;4.70;;;;;;;11.74;100.00;98312.56;2606138;28;20500;-90
2022/08/22 00:35:36;;;;;;;6.82;4.22;;;;;;;11.73;100.00;98311.72;2606845;28;20420;-91
2022/08/22 00:37:34;;;;;;;7.80;4.55;;;;;;;11.66;100.00;98310.22;2606202;28;20490;-89
2022/08/22 00:39:15;;;;;;;9.10;4.50;;;;;;;11.67;100.00;98304.06;2600770;28;20096;-89
2022/08/22 00:40:56;;;;;;;6.65;4.40;;;;;;;11.68;100.00;98308.38;2602159;28;20053;-90
2022/08/22 00:42:44;;;;;;;6.82;4.22;;;;;;;11.65;100.00;98308.50;2605070;28;20049;-90
2022/08/22 00:44:05;;;;;;;6.05;3.75;;;;;;;11.48;100.00;98308.22;2587599;28;20694;-91
2022/08/22 00:45:47;;;;;;;6.28;4.00;;;;;;;11.49;100.00;98312.56;2605850;28;20094;-89
2022/08/22 00:47:21;;;;;;;3.88;3.33;;;;;;;11.41;100.00;98311.03;2605779;28;20571;-91
2022/08/22 00:49:08;;;;;;;6.35;4.32;;;;;;;11.42;100.00;98310.13;2606002;28;20083;-91
2022/08/22 00:50:36;;;;;;;8.13;4.57;;;;;;;11.43;100.00;98311.84;2606073;28;20049;-89
2022/08/22 00:52:16;;;;;;;7.15;3.92;;;;;;;11.42;100.00;98310.13;2606245;28;20480;-90
2022/08/22 00:53:48;;;;;;;5.90;4.43;;;;;;;11.50;100.00;98314.28;2606213;28;20084;-89
2022/08/22 00:55:22;;;;;;;10.23;4.57;;;;;;;11.52;100.00;98315.06;2605912;28;20060;-90
2022/08/22 00:57:07;;;;;;;7.13;4.72;;;;;;;11.64;100.00;98317.28;2608336;28;20618;-90
2022/08/22 00:58:53;;;;;;;9.05;4.50;;;;;;;11.63;100.00;98318.19;2607919;28;20041;-88
2022/08/22 01:00:23;;;;;;;5.43;3.80;;;;;;;11.60;100.00;98318.31;2607602;28;20407;-90
2022/08/22 01:01:51;;;;;;;6.43;4.15;;;;;;;11.62;100.00;98315.59;2608385;28;20468;-89
2022/08/22 01:03:25;;;;;;;5.78;4.25;;;;;;;11.63;100.00;98315.56;2607244;28;20045;-89
2022/08/22 01:05:01;;;;;;;4.35;3.80;;;;;;;11.61;100.00;98317.38;2608752;28;20049;-89
2022/08/22 01:06:38;;;;;;;6.28;4.43;;;;;;;11.59;100.00;98317.44;2607950;28;20053;-89
2022/08/22 01:08:25;;;;;;;6.43;4.15;;;;;;;11.66;100.00;98314.59;2607370;28;20542;-90
2022/08/22 01:10:13;;;;;;;8.48;3.92;;;;;;;11.75;100.00;98310.81;2608152;28;20084;-90
2022/08/22 01:11:44;;;;;;;5.70;4.10;;;;;;;11.67;100.00;98309.31;2607435;28;20063;-90
2022/08/22 01:13:26;;;;;;;9.75;3.85;;;;;;;11.69;100.00;98306.63;2607377;28;20045;-92
2022/08/22 01:14:46;;;;;;;7.40;4.32;;;;;;;11.62;100.00;98311.25;2608016;28;20049;-90
2022/08/22 01:16:34;;;;;;;5.35;4.05;;;;;;;11.68;100.00;98303.16;2607498;28;20075;-90
2022/08/22 01:18:11;;;;;;;8.13;4.07;;;;;;;11.66;100.00;98302.34;2598477;28;20814;-90
2022/08/22 01:20:06;;;;;;;4.80;4.03;;;;;;;11.65;100.00;98305.88;2607348;28;20055;-91
2022/08/22 01:21:51;;;;;;;8.13;4.25;;;;;;;11.61;100.00;98304.28;2606999;28;20091;-92
2022/08/22 01:23:25;;;;;;;8.70;4.05;;;;;;;11.59;100.00;98300.81;2608100;28;20419;-90
2022/08/22 01:25:17;;;;;;;4.50;3.80;;;;;;;11.58;100.00;98299.13;2607218;28;20476;-90
2022/08/22 01:26:57;;;;;;;8.02;4.00;;;;;;;11.60;100.00;98307.81;2606531;28;20174;-91
2022/08/22 01:28:34;;;;;;;5.07;4.20;;;;;;;11.63;100.00;98307.69;2607574;28;20095;-91
2022/08/22 01:30:00;;;;;;;7.32;4.63;;;;;;;11.62;100.00;98305.13;2606751;28;20048;-91
2022/08/22 01:31:37;;;;;;;6.15;4.25;;;;;;;11.67;100.00;98303.22;2607954;28;20446;-90
2022/08/22 01:33:23;;;;;;;8.23;3.80;;;;;;;11.67;100.00;98311.94;2607480;28;20149;-90
2022/08/22 01:34:52;;;;;;;7.95;4.20;;;;;;;11.73;100.00;98300.38;2607296;28;20617;-91
2022/08/22 01:36:07;;;;;;;5.82;4.07;;;;;;;11.81;100.00;98305.34;2608660;28;20048;-92
2022/08/22 01:37:42;;;;;;;4.30;3.90;;;;;;;11.80;100.00;98304.47;2606946;28;20056;-91
2022/08/22 01:39:15;;;;;;;5.75;3.95;;;;;;;11.82;100.00;98307.06;2607409;28;20136;-92
2022/08/22 01:40:51;;;;;;;5.70;3.58;;;;;;;11.82;100.00;98304.44;2606831;28;20052;-90
2022/08/22 01:42:09;;;;;;;11.95;4.25;;;;;;;11.83;100.00;98311.38;2607090;28;20175;-90
2022/08/22 01:43:43;;;;;;;5.07;4.15;;;;;;;11.76;100.00;98308.13;2608009;28;20145;-91
2022/08/22 01:45:13;;;;;;;7.20;3.90;;;;;;;11.77;100.00;98299.34;2607446;28;20048;-91
2022/08/22 01:46:57;;;;;;;8.50;4.57;;;;;;;11.71;100.00;98302.19;2608085;28;20048;-90
2022/08/22 01:48:41;;;;;;;8.32;4.40;;;;;;;11.69;100.00;98299.59;2601536;28;20059;-90
2022/08/22 01:50:11;;;;;;;4.93;3.95;;;;;;;11.69;100.00;98302.22;2606825;28;20057;-92
2022/08/22 01:51:39;;;;;;;4.90;4.10;;;;;;;11.73;100.00;98300.38;2607813;28;20099;-91
2022/08/22 01:53:18;;;;;;;6.70;4.15;;;;;;;11.73;100.00;98300.38;2607488;28;20488;-90
2022/08/22 01:54:42;;;;;;;6.65;4.20;;;;;;;11.67;100.00;98296.19;2607434;28;20045;-92
2022/08/22 01:56:21;;;;;;;5.93;4.00;;;;;;;11.60;100.00;98297.31;2607245;28;20049;-90
2022/08/22 01:57:55;;;;;;;5.10;3.75;;;;;;;11.49;100.00;98291.59;2607840;28;20056;-88
2022/08/22 01:59:28;;;;;;;9.73;3.97;;;;;;;11.49;100.00;98295.06;2606942;28;20129;-91
2022/08/22 02:01:06;;;;;;;9.68;4.90;;;;;;;11.44;100.00;98294.38;2607044;28;20055;-90
2022/08/22 02:02:58;;;;;;;7.05;4.35;;;;;;;11.44;100.00;98296.97;2607678;28;20099;-89
2022/08/22 02:04:47;;;;;;;6.15;4.60;;;;;;;11.44;100.00;98292.59;2606684;28;20061;-90
2022/08/22 02:06:15;;;;;;;9.30;4.68;;;;;;;11.55;100.00;98296.59;2606946;28;20064;-90
2022/08/22 02:07:46;;;;;;;9.45;4.30;;;;;;;11.44;100.00;98302.22;2607432;28;20048;-90
2022/08/22 02:09:11;;;;;;;4.75;4.10;;;;;;;11.44;100.00;98299.59;2607204;28;20048;-89
2022/08/22 02:10:49;;;;;;;6.65;4.40;;;;;;;11.51;100.00;98302.88;2607480;28;20521;-90
2022/08/22 02:12:28;;;;;;;7.20;4.07;;;;;;;11.54;100.00;98301.00;2606155;28;20325;-92
2022/08/22 02:13:55;;;;;;;6.97;4.80;;;;;;;11.46;100.00;98303.03;2607203;28;20057;-90
2022/08/22 02:15:32;;;;;;;6.43;4.30;;;;;;;11.44;100.00;98305.69;2606740;28;20079;-89
2022/08/22 02:16:54;;;;;;;9.32;4.47;;;;;;;11.46;100.00;98307.44;2606379;28;20419;-91
2022/08/22 02:18:18;;;;;;;6.47;4.47;;;;;;;11.41;100.00;98300.56;2607640;28;20053;-90
2022/08/22 02:19:56;;;;;;;7.95;4.32;;;;;;;11.45;100.00;98306.56;2605962;28;20045;-90
2022/08/22 02:21:21;;;;;;;7.35;4.30;;;;;;;11.43;100.00;98298.72;2607456;28;20052;-90
2022/08/22 02:22:59;;;;;;;10.90;4.75;;;;;;;11.36;100.00;98299.88;2606579;28;20144;-91
2022/08/22 02:24:27;;;;;;;6.25;4.22;;;;;;;11.38;100.00;98305.03;2607080;28;20076;-91
2022/08/22 02:25:55;;;;;;;6.30;5.22;;;;;;;11.37;100.00;98301.56;2606834;28;20072;-90
2022/08/22 02:27:47;;;;;;;7.97;4.50;;;;;;;11.35;100.00;98305.16;2606839;28;20048;-89
2022/08/22 02:29:33;;;;;;;8.50;4.47;;;;;;;11.31;100.00;98301.75;2607376;28;20061;-91
2022/08/22 02:31:00;;;;;;;8.70;4.85;;;;;;;11.34;100.00;98300.81;2603881;28;20496;-91
2022/08/22 02:32:38;;;;;;;9.40;4.80;;;;;;;11.32;100.00;98300.88;2607432;28;20415;-91
2022/08/22 02:34:00;;;;;;;8.55;4.95;;;;;;;11.34;100.00;98306.06;2606834;28;20044;-92
2022/08/22 02:35:27;;;;;;;6.45;4.55;;;;;;;11.32;100.00;98300.88;2607003;28;20053;-91
2022/08/22 02:36:50;;;;;;;7.75;4.85;;;;;;;11.38;100.00;98295.41;2607222;28;20048;-90
2022/08/22 02:38:37;;;;;;;6.50;4.30;;;;;;;11.34;100.00;98303.44;2606603;28;20049;-91
2022/08/22 02:40:06;;;;;;;5.63;4.03;;;;;;;11.44;100.00;98292.59;2607598;28;20095;-89
2022/08/22 02:41:44;;;;;;;9.40;4.57;;;;;;;11.37;100.00;98296.34;2606678;28;20115;-90
2022/08/22 02:43:18;;;;;;;7.07;4.80;;;;;;;11.40;100.00;98296.22;2607303;28;20075;-91
2022/08/22 02:44:41;;;;;;;5.82;4.78;;;;;;;11.47;100.00;98296.03;2607013;28;20044;-91
2022/08/22 02:46:04;;;;;;;6.95;5.03;;;;;;;11.40;100.00;98293.59;2606549;28;20420;-90
2022/08/22 02:47:34;;;;;;;6.38;4.53;;;;;;;11.52;100.00;98294.09;2607829;28;20622;-90
2022/08/22 02:49:11;;;;;;;9.40;4.47;;;;;;;11.50;100.00;98295.91;2606035;28;20098;-92
2022/08/22 02:50:29;;;;;;;5.60;4.90;;;;;;;11.47;100.00;98296.03;2607027;28;20049;-90
2022/08/22 02:52:01;;;;;;;6.03;4.90;;;;;;;11.44;100.00;98292.59;2606499;28;20044;-90
2022/08/22 02:53:27;;;;;;;6.00;4.68;;;;;;;11.41;100.00;98282.22;2607029;28;20052;-90
2022/08/22 02:55:12;;;;;;;7.10;4.60;;;;;;;11.40;100.00;98287.53;2606469;28;20049;-90
2022/08/22 02:56:36;;;;;;;8.48;4.43;;;;;;;11.44;100.00;98287.34;2606978;28;20392;-90
2022/08/22 02:58:17;;;;;;;8.55;4.43;;;;;;;11.39;100.00;98286.66;2607047;28;20064;-90
2022/08/22 03:00:18;;;;;;;5.78;4.20;;;;;;;11.39;100.00;98284.03;2606095;28;20045;-91
2022/08/22 03:01:39;;;;;;;10.13;4.55;;;;;;;11.38;100.00;98289.31;2601304;28;20045;-90
2022/08/22 03:02:57;;;;;;;6.45;4.38;;;;;;;11.40;100.00;98284.91;2606207;28;20656;-93
2022/08/22 03:04:21;;;;;;;7.05;4.70;;;;;;;11.40;100.00;98290.13;2607495;28;20048;-91
2022/08/22 03:05:37;;;;;;;6.65;4.60;;;;;;;11.38;100.00;98282.31;2606869;28;20419;-90
2022/08/22 03:07:22;;;;;;;7.35;4.45;;;;;;;11.40;100.00;98285.75;2607201;28;20049;-90
2022/08/22 03:08:59;;;;;;;6.80;4.60;;;;;;;11.38;100.00;98287.56;2607232;28;20047;-91
2022/08/22 03:11:01;;;;;;;6.72;4.60;;;;;;;11.37;100.00;98282.34;2606125;28;20049;-90
2022/08/22 03:12:28;;;;;;;5.90;4.50;;;;;;;11.41;100.00;98284.81;2600795;28;20045;-91
2022/08/22 03:13:53;;;;;;;6.15;4.38;;;;;;;11.39;100.00;98283.19;2606865;28;20055;-90
2022/08/22 03:15:59;;;;;;;7.50;4.72;;;;;;;11.39;100.00;98284.03;2606729;28;20123;-91
2022/08/22 03:17:25;;;;;;;9.70;4.25;;;;;;;11.41;100.00;98273.50;2597614;28;20065;-89
2022/08/22 03:19:22;;;;;;;5.90;4.93;;;;;;;11.42;100.00;98278.66;2605729;28;20107;-89
2022/08/22 03:20:46;;;;;;;8.55;4.25;;;;;;;11.44;100.00;98286.50;2589744;28;20081;-90
2022/08/22 03:22:08;;;;;;;8.63;4.60;;;;;;;11.37;100.00;98275.38;2589831;28;20091;-91
2022/08/22 03:23:33;;;;;;;;;;;;;;;11.40;100.00;98285.75;2590537;28;20674;-90
2022/08/22 03:25:00;;;;;;;5.95;4.50;;;;;;;11.39;100.00;98277.94;2589070;28;20027;-90
2022/08/22 03:26:39;;;;;;;8.45;4.72;;;;;;;11.42;100.00;98281.28;2599378;28;21125;-89
2022/08/22 03:28:02;;;;;;;5.20;4.53;;;;;;;11.44;100.00;98276.84;2606930;28;20707;-91
2022/08/22 03:29:24;;;;;;;9.43;4.93;;;;;;;11.39;100.00;98278.78;2606416;28;20045;-90
2022/08/22 03:30:44;;;;;;;7.10;5.00;;;;;;;11.42;100.00;98283.91;2606983;28;20056;-89
2022/08/22 03:32:05;;;;;;;5.22;4.38;;;;;;;11.43;100.00;98282.16;2605810;28;20049;-92
2022/08/22 03:33:30;;;;;;;4.70;4.18;;;;;;;11.47;100.00;98286.38;2606310;28;20532;-90
2022/08/22 03:35:07;;;;;;;8.25;4.88;;;;;;;11.40;100.00;98283.13;2606234;28;20044;-89
2022/08/22 03:36:27;;;;;;;6.97;4.50;;;;;;;11.35;100.00;98277.19;2606057;28;20064;-90
2022/08/22 03:37:44;;;;;;;6.50;4.45;;;;;;;11.42;100.00;98283.91;2606718;28;20381;-91
2022/08/22 03:39:16;;;;;;;9.93;6.03;;;;;;;11.43;100.00;98284.78;2606026;28;20080;-90
2022/08/22 03:40:48;;;;;;;7.85;4.47;;;;;;;11.44;100.00;98281.25;2606727;28;20444;-90
2022/08/22 03:42:26;;;;;;;8.25;4.28;;;;;;;11.46;100.00;98286.47;2606388;28;20656;-90
2022/08/22 03:43:45;;;;;;;6.63;4.20;;;;;;;11.48;100.00;98280.22;2606316;28;20465;-90
2022/08/22 03:45:37;;;;;;;5.85;4.63;;;;;;;11.47;100.00;98290.78;2605904;28;20546;-89
2022/08/22 03:47:30;;;;;;;8.32;4.72;;;;;;;11.51;100.00;98282.75;2605989;28;20076;-91
2022/08/22 03:49:07;;;;;;;6.63;4.85;;;;;;;11.53;100.00;98280.06;2606697;28;20060;-90
2022/08/22 03:50:38;;;;;;;8.13;4.38;;;;;;;11.59;100.00;98283.34;2605749;28;20055;-90
2022/08/22 03:52:29;;;;;;;5.82;4.88;;;;;;;11.64;100.00;98282.31;2604529;28;20056;-93
2022/08/22 03:54:00;;;;;;;6.97;4.43;;;;;;;11.61;100.00;98287.69;2589074;28;20057;-89
2022/08/22 03:55:41;;;;;;;5.85;4.57;;;;;;;11.57;100.00;98290.41;2605995;28;20092;-90
2022/08/22 03:57:06;;;;;;;7.38;4.85;;;;;;;11.52;100.00;98288.84;2606095;28;20049;-89
2022/08/22 03:58:35;;;;;;;6.70;4.50;;;;;;;11.53;100.00;98288.81;2605669;28;20485;-89
2022/08/22 04:00:10;;;;;;;5.57;4.22;;;;;;;11.60;100.00;98284.22;2606802;28;20558;-91
2022/08/22 04:01:28;;;;;;;6.35;4.90;;;;;;;11.60;100.00;98286.84;2606350;28;20055;-90
2022/08/22 04:02:53;;;;;;;9.52;5.15;;;;;;;11.65;100.00;98282.28;2605645;28;20257;-89
2022/08/22 04:04:17;;;;;;;6.28;4.25;;;;;;;11.64;100.00;98283.19;2605910;28;20687;-90
2022/08/22 04:05:39;;;;;;;5.55;4.70;;;;;;;11.60;100.00;98284.22;2606200;28;21126;-91
2022/08/22 04:07:13;;;;;;;5.78;4.38;;;;;;;11.68;100.00;98284.78;2606576;28;20130;-90
2022/08/22 04:09:06;;;;;;;8.70;4.65;;;;;;;11.71;100.00;98281.22;2605533;28;20045;-91
2022/08/22 04:10:46;;;;;;;5.38;4.63;;;;;;;11.70;100.00;98282.13;2606458;28;20492;-90
2022/08/22 04:12:16;;;;;;;6.00;4.25;;;;;;;11.66;100.00;98278.75;2606234;28;20122;-89
2022/08/22 04:13:52;;;;;;;6.80;4.57;;;;;;;11.65;100.00;98287.53;2604900;28;20144;-89
2022/08/22 04:15:39;;;;;;;6.65;4.50;;;;;;;11.63;100.00;98284.09;2606425;28;20435;-89
2022/08/22 04:17:14;;;;;;;5.97;4.05;;;;;;;11.58;100.00;98286.00;2605340;28;20072;-90
2022/08/22 04:18:56;;;;;;;7.35;4.43;;;;;;;11.60;100.00;98278.97;2606545;28;20102;-89
2022/08/22 04:20:36;;;;;;;8.02;4.38;;;;;;;11.61;100.00;98278.06;2606737;28;20395;-89
2022/08/22 04:22:01;;;;;;;5.90;4.28;;;;;;;11.62;100.00;98285.00;2604811;28;20128;-91
2022/08/22 04:23:38;;;;;;;7.50;5.18;;;;;;;11.62;100.00;98290.25;2606381;28;20140;-90
2022/08/22 04:24:54;;;;;;;8.10;4.72;;;;;;;11.62;100.00;98279.78;2605959;28;20057;-90
2022/08/22 04:26:30;;;;;;;5.40;4.45;;;;;;;11.71;100.00;98284.66;2606803;28;20517;-89
2022/08/22 04:27:57;;;;;;;6.70;4.38;;;;;;;11.71;100.00;98289.91;2605816;28;20053;-89
2022/08/22 04:29:22;;;;;;;6.10;4.50;;;;;;;11.66;100.00;98285.75;2605850;28;20053;-89
2022/08/22 04:30:53;;;;;;;6.85;4.82;;;;;;;11.63;100.00;98288.47;2607080;28;20430;-90
2022/08/22 04:32:19;;;;;;;6.63;4.13;;;;;;;11.68;100.00;98287.41;2607611;28;20045;-89
2022/08/22 04:33:51;;;;;;;5.78;4.57;;;;;;;11.66;100.00;98293.59;2608585;28;20140;-91
2022/08/22 04:35:29;;;;;;;8.63;4.70;;;;;;;11.68;100.00;98292.66;2607487;28;20646;-90
2022/08/22 04:36:53;;;;;;;5.68;4.28;;;;;;;11.71;100.00;98296.94;2589855;28;20399;-89
2022/08/22 04:38:20;;;;;;;9.40;4.45;;;;;;;11.72;100.00;98296.03;2607670;28;20045;-90
2022/08/22 04:39:45;;;;;;;6.25;4.70;;;;;;;11.76;100.00;98296.78;2608411;28;20144;-89
2022/08/22 04:41:11;;;;;;;6.72;4.25;;;;;;;11.86;100.00;98295.53;2607760;28;20521;-91
2022/08/22 04:42:53;;;;;;;11.15;4.53;;;;;;;11.89;100.00;98298.06;2607400;28;20052;-90
2022/08/22 04:44:40;;;;;;;6.65;4.20;;;;;;;11.93;100.00;98290.91;2608227;28;20070;-90
2022/08/22 04:46:15;;;;;;;6.43;4.15;;;;;;;11.93;100.00;98293.53;2607699;28;20060;-91
2022/08/22 04:47:30;;;;;;;5.88;4.60;;;;;;;11.90;100.00;98293.66;2607819;28;20096;-90
2022/08/22 04:49:15;;;;;;;8.20;5.07;;;;;;;11.90;100.00;98294.53;2608113;28;20049;-89
2022/08/22 04:50:41;;;;;;;7.28;5.00;;;;;;;12.00;100.00;98295.88;2607321;28;20052;-88
2022/08/22 04:52:17;;;;;;;9.07;4.70;;;;;;;12.04;100.00;98294.03;2608585;28;20546;-89
2022/08/22 04:53:48;;;;;;;6.97;4.50;;;;;;;12.05;100.00;98292.28;2607884;28;20728;-91
2022/08/22 04:55:38;;;;;;;6.65;4.75;;;;;;;12.04;100.00;98287.97;2608298;28;20064;-89
2022/08/22 04:56:57;;;;;;;7.50;4.45;;;;;;;12.02;100.00;98292.41;2607593;28;20140;-89
2022/08/22 04:58:38;;;;;;;5.85;4.32;;;;;;;12.03;100.00;98294.13;2608105;28;20056;-89
2022/08/22 04:59:59;;;;;;;6.03;4.70;;;;;;;12.00;100.00;98290.63;2608697;28;20470;-89
2022/08/22 05:01:19;;;;;;;4.88;4.20;;;;;;;11.97;100.00;98288.13;2607747;28;20049;-90
2022/08/22 05:02:38;;;;;;;6.38;4.28;;;;;;;11.94;100.00;98301.38;2608078;28;20468;-89
2022/08/22 05:04:03;;;;;;;5.75;4.30;;;;;;;11.99;100.00;98290.72;2608027;28;20060;-90
2022/08/22 05:05:24;;;;;;;10.05;4.43;;;;;;;12.02;100.00;98292.41;2607562;28;20045;-92
2022/08/22 05:06:44;;;;;;;10.02;4.82;;;;;;;12.06;100.00;98294.00;2607630;28;20049;-89
2022/08/22 05:08:02;;;;;;;5.30;4.50;;;;;;;12.15;100.00;98298.91;2608415;28;20055;-90
2022/08/22 05:09:24;;;;;;;5.78;4.90;;;;;;;12.12;100.00;98293.75;2606556;28;20048;-90
2022/08/22 05:10:44;;;;;;;5.32;4.65;;;;;;;12.14;100.00;98294.56;2608103;28;20056;-88
2022/08/22 05:12:07;;;;;;;7.63;4.95;;;;;;;12.20;100.00;98296.09;2607387;28;20048;-89
2022/08/22 05:13:29;;;;;;;8.57;4.65;;;;;;;12.18;100.00;98292.69;2607940;28;20195;-89
2022/08/22 05:14:51;;;;;;;8.32;4.65;;;;;;;12.18;100.00;98292.69;2607284;28;20115;-89
2022/08/22 05:16:13;;;;;;;7.57;4.90;;;;;;;12.22;100.00;98297.78;2608659;28;20103;-88
2022/08/22 05:17:31;;;;;;;8.93;4.50;;;;;;;12.25;100.00;98300.28;2607242;28;20794;-89
2022/08/22 05:18:51;;;;;;;10.70;4.95;;;;;;;12.32;100.00;98300.06;2608257;28;20056;-90
2022/08/22 05:20:10;;;;;;;7.05;4.80;;;;;;;12.32;100.00;98298.28;2606855;28;20060;-90
2022/08/22 05:21:31;;;;;;;9.98;5.03;;;;;;;12.34;100.00;98293.81;2607982;28;20052;-90
2022/08/22 05:22:57;;;;;;;6.47;4.63;;;;;;;12.27;100.00;98293.19;2607393;28;20710;-90
2022/08/22 05:24:24;;;;;;;8.00;5.05;;;;;;;12.32;100.00;98297.44;2607835;28;20533;-89
2022/08/22 05:25:43;;;;;;;8.27;4.57;;;;;;;12.34;100.00;98293.81;2606765;28;20187;-89
2022/08/22 05:27:08;;;;;;;7.50;4.60;;;;;;;12.34;100.00;98290.34;2608118;28;20060;-90
2022/08/22 05:28:37;;;;;;;6.40;4.63;;;;;;;12.45;100.00;98301.31;2606442;28;20348;-91
2022/08/22 05:30:03;;;;;;;7.82;4.95;;;;;;;12.48;100.00;98295.94;2607333;28;20048;-91
2022/08/22 05:31:28;;;;;;;6.05;4.70;;;;;;;12.47;100.00;98302.09;2606953;28;20048;-88
2022/08/22 05:33:18;;;;;;;8.13;4.85;;;;;;;12.48;100.00;98295.06;2608212;28;20057;-89
2022/08/22 05:34:41;;;;;;;8.05;4.45;;;;;;;12.59;100.00;98297.31;2607839;28;20056;-89
2022/08/22 05:36:32;;;;;;;6.88;4.70;;;;;;;12.53;100.00;98304.47;2607396;28;20045;-88
2022/08/22 05:37:52;;;;;;;9.10;4.85;;;;;;;12.56;100.00;98301.75;2607488;28;20052;-89
2022/08/22 05:39:16;;;;;;;8.27;4.90;;;;;;;12.54;100.00;98303.56;2605649;28;20060;-87
2022/08/22 05:40:34;;;;;;;7.10;4.78;;;;;;;12.57;100.00;98306.09;2606955;28;20049;-89
2022/08/22 05:41:56;;;;;;;9.88;4.75;;;;;;;12.63;100.00;98302.34;2605099;28;20053;-87
2022/08/22 05:43:12;;;;;;;6.88;4.55;;;;;;;12.63;100.00;98304.16;2606545;28;20071;-89
2022/08/22 05:44:36;;;;;;;6.70;4.35;;;;;;;12.72;100.00;98298.53;2606838;28;20583;-89
2022/08/22 05:45:56;;;;;;;6.55;4.97;;;;;;;12.69;100.00;98309.16;2607174;28;20076;-89
2022/08/22 05:47:19;;;;;;;6.93;4.75;;;;;;;12.73;100.00;98305.50;2607173;28;20208;-89
2022/08/22 05:48:48;;;;;;;7.90;4.50;;;;;;;12.74;100.00;98311.59;2607378;28;20132;-87
2022/08/22 05:50:17;;;;;;;6.00;4.75;;;;;;;12.77;100.00;98307.09;2607233;28;20143;-89
2022/08/22 05:51:52;;;;;;;6.70;4.45;;;;;;;12.80;100.00;98308.75;2604935;28;20048;-89
2022/08/22 05:53:11;;;;;;;9.27;4.63;;;;;;;12.80;100.00;98306.13;2603287;28;20049;-89
2022/08/22 05:54:32;;;;;;;10.68;5.25;;;;;;;12.86;100.00;98316.38;2607359;28;20052;-89
2022/08/22 05:56:12;;;;;;;6.53;4.68;;;;;;;12.84;100.00;98310.34;2607262;28;20063;-88
2022/08/22 05:57:31;;;;;;;8.90;4.63;;;;;;;12.92;100.00;98320.53;2606982;28;20111;-88
2022/08/22 05:58:46;;;;;;;7.45;4.80;;;;;;;12.97;100.00;98316.81;2607874;28;20431;-89
2022/08/22 06:00:15;;;;;;;6.57;4.90;;;;;;;13.02;100.00;98321.03;2607324;28;20056;-89
2022/08/22 06:01:33;;;;;;;9.57;4.93;;;;;;;13.02;100.00;98321.88;2608435;28;20049;-89
2022/08/22 06:03:21;;;;;;;7.38;4.72;;;;;;;13.05;100.00;98321.75;2607082;28;20477;-88
2022/08/22 06:04:59;;;;;;;5.95;4.43;;;;;;;13.07;100.00;98329.59;2607843;28;20056;-89
2022/08/22 06:06:17;;;;;;;10.13;5.32;;;;;;;13.02;100.00;98321.03;2607988;28;20078;-89
2022/08/22 06:07:40;;;;;;;7.13;4.80;;;;;;;13.03;100.00;98323.59;2606684;28;20056;-89
2022/08/22 06:09:18;;;;;;;6.65;4.47;;;;;;;13.21;100.00;98326.41;2607397;28;20080;-89
2022/08/22 06:10:41;;;;;;;5.93;4.57;;;;;;;13.30;100.00;98326.03;2606843;28;20063;-88
2022/08/22 06:12:10;;;;;;;6.45;4.88;;;;;;;13.32;100.00;98331.22;2606891;28;20098;-90
2022/08/22 06:13:33;;;;;;;5.95;4.13;;;;;;;13.26;100.00;98329.69;2605526;28;20053;-89
2022/08/22 06:15:00;;;;;;;5.25;4.00;;;;;;;13.37;100.00;98324.84;2607699;28;20492;-92
2022/08/22 06:16:43;;;;;;;11.65;5.07;;;;;;;13.33;100.00;98333.78;2603723;28;20824;-90
2022/08/22 06:18:02;;;;;;;;;;;;;;;13.36;100.00;98322.28;2607029;28;20056;-92
2022/08/22 06:19:18;;;;;;;8.80;4.43;;;;;;;13.33;100.00;98331.16;2606387;28;19936;-88
2022/08/22 06:20:55;;;;;;;5.85;4.75;;;;;;;13.40;100.00;98334.38;2607009;28;20049;-91
2022/08/22 06:22:14;;;;;;;8.13;4.53;;;;;;;13.47;100.00;98327.13;2607548;28;20045;-88
2022/08/22 06:23:30;;;;;;;9.30;4.32;;;;;;;13.53;100.00;98332.13;2606652;28;20053;-88
2022/08/22 06:24:48;;;;;;;7.47;4.63;;;;;;;13.48;100.00;98328.84;2606569;28;20060;-92
2022/08/22 06:26:07;;;;;;;5.30;4.55;;;;;;;13.52;100.00;98327.78;2606904;28;20564;-90
2022/08/22 06:27:26;;;;;;;6.65;4.82;;;;;;;13.53;100.00;98324.22;2607566;28;20146;-89
2022/08/22 06:28:46;;;;;;;10.40;5.22;;;;;;;13.62;100.00;98322.97;2606984;28;20056;-91
2022/08/22 06:30:05;;;;;;;7.10;4.90;;;;;;;13.57;100.00;98325.84;2607949;28;20056;-90
2022/08/22 06:31:29;;;;;;;8.00;4.88;;;;;;;13.65;100.00;98326.34;2606419;28;20517;-89
2022/08/22 06:32:53;;;;;;;6.55;4.30;;;;;;;13.65;100.00;98328.97;2607406;28;20789;-90
2022/08/22 06:34:12;;;;;;;7.10;4.80;;;;;;;13.66;100.00;98328.06;2606305;28;20419;-93
2022/08/22 06:37:32;;;;;;;6.28;4.22;;;;;;;13.83;100.00;98331.75;2606569;28;20055;-89
2022/08/22 06:39:22;;;;;;;6.30;4.28;;;;;;;13.88;100.00;98327.16;2606902;28;20056;-90
2022/08/22 06:40:40;;;;;;;7.53;4.75;;;;;;;13.86;100.00;98329.00;2607489;28;20054;-89
2022/08/22 06:42:04;;;;;;;6.50;4.75;;;;;;;13.87;100.00;98330.69;2606904;28;20136;-90
2022/08/22 06:43:23;;;;;;;7.60;4.97;;;;;;;13.92;100.00;98331.34;2607718;28;20491;-90
2022/08/22 06:44:52;;;;;;;4.88;4.20;;;;;;;13.94;100.00;98329.50;2607211;28;20059;-89
2022/08/22 06:46:12;;;;;;;8.20;4.57;;;;;;;13.99;100.00;98331.94;2605523;28;20045;-89
2022/08/22 06:47:35;;;;;;;5.45;4.53;;;;;;;14.07;100.00;98342.13;2605438;28;20054;-89
2022/08/22 06:48:54;;;;;;;6.43;4.80;;;;;;;14.05;100.00;98338.72;2606063;28;20076;-89
2022/08/22 06:50:19;;;;;;;9.45;4.82;;;;;;;14.16;100.00;98340.84;2604801;28;20178;-89
2022/08/22 06:51:37;;;;;;;8.05;4.38;;;;;;;14.16;100.00;98336.47;2606596;28;20098;-91
2022/08/22 06:53:17;;;;;;;7.03;4.95;;;;;;;14.16;100.00;98339.09;2606065;28;20041;-90
2022/08/22 06:54:35;;;;;;;6.45;4.38;;;;;;;14.19;100.00;98338.13;2607090;28;20549;-93
2022/08/22 06:55:55;;;;;;;6.13;4.45;;;;;;;14.19;100.00;98335.47;2605013;28;20404;-89
2022/08/22 06:57:24;;;;;;;7.85;4.72;;;;;;;14.31;100.00;98331.44;2606745;28;20793;-90
2022/08/22 06:58:43;;;;;;;5.95;4.18;;;;;;;14.34;100.00;98342.69;2606393;28;20053;-89
2022/08/22 07:00:04;;;;;;;5.45;4.32;;;;;;;14.40;100.00;98331.88;2606565;28;20052;-90
2022/08/22 07:01:23;;;;;;;8.38;4.35;;;;;;;14.37;100.00;98334.66;2606556;28;20049;-91
2022/08/22 07:02:43;;;;;;;6.22;4.60;;;;;;;14.37;100.00;98332.00;2606792;28;20416;-94
2022/08/22 07:04:06;;;;;;;7.03;4.00;;;;;;;14.48;100.00;98334.16;2606273;28;20056;-90
2022/08/22 07:05:26;;;;;;;5.85;4.38;;;;;;;14.58;100.00;98339.00;2607343;28;20507;-90